ADDS METAR Data INFO
IDs: Format: Raw Decoded Include TAF

Data at: 1156 UTC 25 Jun 2018

KGLS 251152Z 17015KT 10SM SCT018 BKN023 28/26 A2998 RMK AO2 SLP153 70001 T02780256 10283 20278 53010
KGLS 251131Z 17015KT 10SM BKN022 28/26 A2998 RMK AO2 T02780256
KGLS 251052Z 17018KT 10SM CLR 28/26 A2996 RMK AO2 PK WND 17029/0954 SLP146 T02830256
KGLS 250952Z AUTO 17022G26KT 10SM FEW024 28/25 A2995 RMK AO2 PK WND 16027/0855 SLP143 T02830250
KGLS 250901Z AUTO 16020G27KT 10SM FEW020 SCT027 28/25 A2995 RMK AO2 PK WND 16027/0855 T02830250
KGLS 250852Z AUTO 17020KT 10SM FEW020 BKN027 28/25 A2995 RMK AO2 SLP142 T02830250 58006
KGLS 250831Z AUTO 16016KT 10SM FEW019 BKN029 28/26 A2995 RMK AO2 T02780256
KGLS 250752Z AUTO 16018KT 10SM CLR 28/25 A2996 RMK AO2 SLP144 T02830250
KGLS 250652Z AUTO 15016KT 10SM SCT037 28/26 A2997 RMK AO2 SLP147 T02830256
KGLS 250552Z AUTO 16018KT 10SM FEW023 SCT034 28/25 A2997 RMK AO2 SLP148 T02830250 10294 20278 403220278 50007
KGLS 250516Z AUTO 16017KT 10SM SCT022 BKN030 29/25 A2997 RMK AO2 T02890250
KGLS 250507Z AUTO 15017KT 10SM SCT022 BKN028 28/25 A2997 RMK AO2 T02780250
KGLS 250452Z AUTO 15015G21KT 10SM FEW021 SCT030 28/25 A2998 RMK AO2 SLP151 T02780250
KGLS 250352Z AUTO 14015KT 10SM FEW021 28/25 A2996 RMK AO2 SLP145 T02780250
KGLS 250252Z AUTO 14013KT 10SM SCT020 28/25 A2995 RMK AO2 SLP141 T02780250 53009
KGLS 250152Z AUTO 15014KT 10SM FEW020 28/25 A2993 RMK AO2 SLP135 T02830250
KGLS 250052Z AUTO 16016KT 10SM CLR 29/24 A2992 RMK AO2 SLP130 T02890244
KGLS 242352Z AUTO 15013KT 10SM CLR 29/26 A2992 RMK AO2 SLP131 60001 T02940256 10322 20289 55008
KGLS 242252Z 16014KT 10SM CLR 30/26 A2992 RMK AO2 SLP130 T03000256
KGLS 242152Z 17016KT 10SM CLR 31/26 A2993 RMK AO2 SLP136 T03110256
KGLS 242052Z 15016KT 10SM CLR 31/26 A2994 RMK AO2 SLP140 60001 T03110261 58008
KGLS 241952Z 16018KT 10SM SCT021 31/26 A2996 RMK AO2 SLP144 T03110261
KGLS 241932Z 16013KT 10SM FEW021 SCT029 29/26 A2997 RMK AO2 T02940261
KGLS 241914Z 16013KT 10SM VCTS FEW021 SCT048 SCT055 29/26 A2997 RMK AO2 T02940261
KGLS 241901Z 16016KT 10SM FEW017 SCT050 BKN065 31/26 A2997 RMK AO2 T03060261
KGLS 241852Z 16014KT 10SM VCTS FEW018 SCT050 BKN065 30/26 A2997 RMK AO2 LTG DSNT SW RAB01E13 SLP147 P0001 T03000261
KGLS 241845Z 15014KT 10SM VCTS FEW018 FEW065 31/27 A2997 RMK AO2 LTG DSNT SW RAB01E13 P0001 T03110267
KGLS 241752Z 17011KT 10SM FEW034 SCT043 BKN055 31/26 A2997 RMK AO2 SLP148 T03060261 10317 20283 51015
KGLS 241652Z 17013KT 10SM SCT021 SCT034 31/26 A2996 RMK AO2 SLP146 T03110261
KGLS 241552Z 18013KT 10SM FEW021 SCT034 31/26 A2994 RMK AO2 SLP139 T03110256
KGLS 241529Z 18016KT 10SM SCT022 BKN030 31/26 A2994 RMK AO2 T03060261
KGLS 241452Z 18016KT 10SM SCT013 BKN021 31/26 A2992 RMK AO2 SLP133 T03060261 53009
KGLS 241359Z 18016KT 10SM FEW013 SCT021 30/26 A2991 RMK AO2 T03000256
KGLS 241352Z 18017G22KT 10SM BKN021 29/26 A2991 RMK AO2 SLP127 T02940256
KGLS 241252Z 19014KT 10SM SCT019 BKN025 29/26 A2991 RMK AO2 SLP127 T02890256
KGLS 241215Z 18020KT 10SM SCT019 BKN025 28/26 A2990 RMK AO2 T02830256
KGLS 241152Z 19015KT 10SM SCT019 SCT026 28/26 A2990 RMK AO2 SLP124 T02830256 10283 20278 55001
KGLS 241142Z 18014KT 10SM FEW019 SCT026 28/26 A2990 RMK AO2 T02830256
KGLS 241052Z 19015KT 10SM SCT019 SCT023 BKN028 28/26 A2989 RMK AO2 SLP123 T02830261
KGLS 241041Z 19016KT 10SM SCT019 BKN027 28/26 A2989 RMK AO2 T02830261
KGLS 240952Z AUTO 18016KT 10SM SCT020 SCT029 BKN037 28/26 A2989 RMK AO2 SLP123 T02830261
KGLS 240945Z AUTO 18016KT 10SM FEW020 SCT025 SCT035 28/26 A2990 RMK AO2 T02830261
KGLS 240932Z AUTO 18016KT 10SM SCT019 BKN026 BKN033 28/26 A2990 RMK AO2 T02830261
KGLS 240852Z AUTO 18016KT 10SM SCT021 28/26 A2990 RMK AO2 SLP125 T02830256 50001
KGLS 240813Z AUTO 18016G23KT 10SM FEW017 SCT023 SCT029 28/25 A2991 RMK AO2 T02830250
KGLS 240752Z AUTO 18012KT 10SM BKN020 BKN029 BKN037 28/26 A2992 RMK AO2 SLP130 T02830256
KGLS 240732Z AUTO 18018G23KT 10SM SCT021 BKN029 BKN036 28/26 A2992 RMK AO2 T02830261
KGLS 240652Z AUTO 18021G25KT 10SM FEW019 SCT024 28/26 A2991 RMK AO2 SLP129 T02830256
KGLS 240552Z AUTO 17018G22KT 10SM SCT018 SCT023 BKN030 28/26 A2990 RMK AO2 SLP124 T02830256 10294 20278 403170272 50005
KGLS 240547Z AUTO 17015G23KT 10SM SCT018 SCT023 BKN030 28/25 A2990 RMK AO2
KGLS 240532Z AUTO 17018G23KT 10SM SCT018 BKN022 BKN029 28/26 A2990 RMK AO2 T02830256
KGLS 240452Z AUTO 17019KT 10SM FEW019 FEW028 28/26 A2989 RMK AO2 SLP120 T02830256
KGLS 240416Z AUTO 16017KT 10SM FEW018 SCT025 28/25 A2988 RMK AO2 T02830250
KGLS 240400Z AUTO 17015KT 10SM SCT017 BKN023 BKN030 28/26 A2988 RMK AO2 T02830256
KGLS 240352Z AUTO 16015KT 10SM FEW017 SCT026 BKN030 28/26 A2988 RMK AO2 SLP118 T02830256
KGLS 240343Z AUTO 16017KT 10SM SCT017 BKN026 28/26 A2988 RMK AO2 T02830261
KGLS 240252Z AUTO 15013KT 10SM FEW017 28/26 A2986 RMK AO2 SLP112 T02830256 53003
KGLS 240152Z AUTO 16015KT 10SM SCT019 28/26 A2985 RMK AO2 SLP106 T02830261
KGLS 240052Z AUTO 17014KT 10SM FEW019 SCT024 28/26 A2985 RMK AO2 SLP109 T02830256